Heat Index SAI AWOS Graphical Display Untitled Document
Sidney Municipal Airport , NY ( N23 )
240
16:59
17/10/23
05
N/A
N/A
30.17
N/A
1027
63(F), 17(C)
57(F), 14(C)
63 F
83%
BKN018 OVC043
10
N/A
N/A
N/A
16:59 zulu Wind 240 at 05 Knots, Altimeter 30.17
METAR KN23 231659Z AUTO 24005KT 10SM BKN018 OVC043 17/14 A3018 A02
METAR:
FAA Disclaimer--Advisory Use ONLY, not for flight info-- 6/29/2009: Sidney Airport, operations 607-561-2346, Pilots with cellphones (smartphones) can now view awos at http://www.saiawos3.com/N23
INFO:
Wind Direction:
Wind Speed:
Wind Gust:
Wind Variable:
Altimeter:
Dens Alt:
Elev:
Temp:
Dwpt:
Wind Chill
Rel Humidity:
Ceiling:
Visibility:
Prsnt Wea:
PCPN:
Remarks:
How to read the WebPage